Airfield :
LOGIN :

Register | Disclaimer

   EN    FR    IT 

 










Legend :    VFR   Marginal VFR   IFR   Intensive IFR   Very Intensive IFR
Visi :
Ceiling :
>= 8 km
>= 3000ft
5 to 8 km
1000 to 3000 ft
1500m to 5 km
500 to 1000 ft
800 to 1500m
200 to 500 ft
< 800m
< 200 ft
Symbols :   Thunderstorms  Fog  Heavy snow  Heavy precipitations  Wind > 20 kt
SIGMETs :     Misc.  Thunderstorms  Icing  Turbulence  Mountain Waves  Volcanic Ashes







- Airport Elevation : 622 ft
- IATA code : BRS
- Download approach charts


EGGD - Bristol Int.

CURRENT METAR :
  • 172250Z AUTO 28009KT 0800 R27/1100 FG VV/// 09/09 Q1022

EXPIRED METARs :
  • 172220Z AUTO 28012KT 0700 R27/1400 FG OVC001 09/09 Q1022
  • 172150Z AUTO 28013KT 1100 R27/P1500 BR OVC001 09/09 Q1021
  • 172120Z AUTO 27014KT 0200 R27/0700 FG VV/// 09/09 Q1021
  • 172050Z AUTO 26016KT 0200 R27/0600 FG VV/// 09/09 Q1021
  • 172020Z AUTO 26014KT 0100 R27/0325 FG VV/// 09/09 Q1021

TAF AMD TAF EGGD
Valid from the 17 at 23:00 until the 18 at 18:00 UTC


172252Z 1723/1818 31010KT 0300 FG BKN001
BECMG 1723/1801 9999 NSW SCT020
BECMG 1800/1803 VRB03KT
PROB40 1816/1818 7000
ATIS : +44 1275 473 666
No reported NOTAMs for that airfield.



MET'MAP, your aeronautical weather chart ! - Copyright ORBIFLY December 2007 - Disclaimer

ORBIFLY MET'MAP TEAM :

Programming & Development : Alexandra Zaïnal
Concept & Development : Baudouin d'Aumeries
Co-Development & Prog : Marc-Olivier Méhu
Technical & hardware support : Manuel Goepfert

Contact : metmap@orbifly.com




SOURCES & CREDITS :

   NOAA